Time;durP1;ratioP1;P1;durP2;ratioP2;P2;SDS_P1;SDS_P2;PMS_P1;PMS_P2;Temp;Humidity;BMP_temperature;BMP_pressure;BME280_temperature;BME280_humidity;BME280_pressure;Samples;Min_cycle;Max_cycle;Signal;HPM_P1;HPM_P2
2022/07/22 00:01:32;;;;;;;8.77;8.07;;;;;;;19.87;100.00;100620.44;4947157;28;20705;-77
2022/07/22 00:03:58;;;;;;;8.67;7.87;;;;;;;19.82;100.00;100616.28;4945169;29;20248;-76
2022/07/22 00:06:24;;;;;;;8.23;7.70;;;;;;;19.79;100.00;100627.78;4943841;28;20218;-77
2022/07/22 00:08:50;;;;;;;8.57;7.83;;;;;;;19.79;100.00;100622.53;4958284;28;20797;-77
2022/07/22 00:11:15;;;;;;;8.40;7.67;;;;;;;19.84;100.00;100635.47;4941172;29;20204;-76
2022/07/22 00:13:40;;;;;;;8.27;7.67;;;;;;;19.83;100.00;100631.97;4942787;28;20191;-75
2022/07/22 00:16:06;;;;;;;8.27;7.67;;;;;;;19.84;100.00;100630.22;4944214;28;20188;-77
2022/07/22 00:18:32;;;;;;;8.03;7.33;;;;;;;19.83;100.00;100631.97;4940965;28;20595;-77
2022/07/22 00:20:57;;;;;;;9.20;8.40;;;;;;;19.83;100.00;100634.59;4942672;28;20191;-77
2022/07/22 00:23:22;;;;;;;9.33;8.43;;;;;;;19.83;100.00;100636.38;4942291;28;20205;-75
2022/07/22 00:25:48;;;;;;;9.90;9.07;;;;;;;19.81;100.00;100636.44;4944618;28;20783;-75
2022/07/22 00:28:13;;;;;;;9.40;8.60;;;;;;;19.80;100.00;100629.50;4944260;28;20226;-77
2022/07/22 00:30:38;;;;;;;9.17;8.53;;;;;;;19.80;100.00;100632.13;4946975;28;20205;-76
2022/07/22 00:33:05;;;;;;;10.57;9.67;;;;;;;19.83;100.00;100633.75;4944779;28;20204;-76
2022/07/22 00:35:30;;;;;;;11.03;10.00;;;;;;;19.85;100.00;100626.66;4944044;29;20197;-76
2022/07/22 00:37:56;;;;;;;10.50;9.70;;;;;;;19.84;100.00;100615.28;4948315;28;20296;-75
2022/07/22 00:40:21;;;;;;;10.13;9.30;;;;;;;19.84;100.00;100623.16;4956120;28;20654;-76
2022/07/22 00:42:49;;;;;;;9.87;9.07;;;;;;;19.83;100.00;100618.00;4945289;28;20227;-76
2022/07/22 00:45:14;;;;;;;10.17;9.37;;;;;;;19.80;100.00;100621.59;4939363;28;20594;-76
2022/07/22 00:47:39;;;;;;;10.27;9.47;;;;;;;19.80;100.00;100619.00;4943987;28;20194;-75
2022/07/22 00:50:05;;;;;;;10.50;9.60;;;;;;;19.82;100.00;100622.38;4944565;28;20739;-78
2022/07/22 00:52:32;;;;;;;9.73;8.93;;;;;;;19.82;100.00;100619.75;4945570;28;20200;-76
2022/07/22 00:54:59;;;;;;;10.20;9.20;;;;;;;19.85;100.00;100622.25;4939565;28;20582;-76
2022/07/22 00:57:24;;;;;;;10.93;9.93;;;;;;;19.83;100.00;100625.88;4943503;28;20214;-75
2022/07/22 00:59:50;;;;;;;10.57;9.67;;;;;;;19.86;100.00;100623.97;4946897;28;20208;-75
2022/07/22 01:02:15;;;;;;;10.60;9.67;;;;;;;19.82;100.00;100626.78;4945302;29;20194;-76
2022/07/22 01:04:41;;;;;;;10.77;9.80;;;;;;;19.86;100.00;100623.13;4940851;28;20215;-75
2022/07/22 01:07:06;;;;;;;11.00;10.20;;;;;;;19.80;100.00;100624.25;4949695;28;20261;-75
2022/07/22 01:09:31;;;;;;;11.17;10.27;;;;;;;19.79;100.00;100623.38;4950487;28;20284;-75
2022/07/22 01:11:57;;;;;;;12.40;11.30;;;;;;;19.79;100.00;100612.88;4945638;28;20197;-75
2022/07/22 01:14:22;;;;;;;11.43;10.23;;;;;;;19.77;100.00;100619.09;4945320;29;20227;-76
2022/07/22 01:16:48;;;;;;;11.33;10.30;;;;;;;19.73;100.00;100615.78;4949234;28;20175;-76
2022/07/22 01:19:13;;;;;;;11.20;10.30;;;;;;;19.69;100.00;100614.19;4961519;28;20217;-76
2022/07/22 01:21:39;;;;;;;11.63;10.53;;;;;;;19.64;100.00;100614.38;4947498;29;20188;-75
2022/07/22 01:24:05;;;;;;;11.57;10.43;;;;;;;19.62;100.00;100616.22;4947278;29;20560;-76
2022/07/22 01:26:33;;;;;;;11.60;10.70;;;;;;;19.57;100.00;100615.53;4944155;28;20228;-77
2022/07/22 01:28:58;;;;;;;11.33;10.37;;;;;;;19.52;100.00;100619.28;4950549;28;20715;-76
2022/07/22 01:31:24;;;;;;;11.67;10.63;;;;;;;19.44;100.00;100609.94;4944676;28;20198;-75
2022/07/22 01:33:49;;;;;;;11.33;10.47;;;;;;;19.43;100.00;100617.88;4943200;28;20201;-75
2022/07/22 01:36:14;;;;;;;11.17;10.37;;;;;;;19.41;100.00;100622.31;4949066;28;20711;-75
2022/07/22 01:38:40;;;;;;;11.30;10.43;;;;;;;19.36;100.00;100611.19;4946290;28;21936;-76
2022/07/22 01:41:05;;;;;;;12.20;11.20;;;;;;;19.35;100.00;100623.44;4946940;28;20210;-75
2022/07/22 01:43:31;;;;;;;11.73;10.83;;;;;;;19.33;100.00;100614.75;4947815;28;20200;-77
2022/07/22 01:45:57;;;;;;;11.57;10.57;;;;;;;19.32;100.00;100610.44;4950139;28;20211;-77
2022/07/22 01:48:22;;;;;;;12.80;11.80;;;;;;;19.32;100.00;100616.56;4945801;28;20251;-75
2022/07/22 01:50:48;;;;;;;12.43;11.40;;;;;;;19.29;100.00;100616.66;4948296;29;20183;-75
2022/07/22 01:53:13;;;;;;;11.63;10.83;;;;;;;19.29;100.00;100615.78;4949999;28;20201;-75
2022/07/22 01:55:39;;;;;;;11.73;10.83;;;;;;;19.31;100.00;100606.09;4963682;28;20721;-77
2022/07/22 01:58:04;;;;;;;12.50;11.40;;;;;;;19.28;100.00;100607.09;4949518;28;20653;-75
2022/07/22 02:00:32;;;;;;;12.27;11.37;;;;;;;19.27;100.00;100610.63;4950222;28;20666;-78
2022/07/22 02:02:57;;;;;;;12.33;11.13;;;;;;;19.27;100.00;100613.25;4942719;28;20749;-76
2022/07/22 02:05:22;;;;;;;11.33;10.43;;;;;;;19.24;100.00;100609.91;4960998;28;20232;-75
2022/07/22 02:07:48;;;;;;;11.83;10.93;;;;;;;19.21;100.00;100618.72;4947053;28;20186;-76
2022/07/22 02:10:13;;;;;;;12.47;11.47;;;;;;;19.19;100.00;100617.97;4944956;29;20542;-74
2022/07/22 02:12:39;;;;;;;12.37;11.33;;;;;;;19.14;100.00;100619.91;4944498;28;20199;-75
2022/07/22 02:15:05;;;;;;;12.60;11.50;;;;;;;19.10;100.00;100608.69;4943971;28;20234;-75
2022/07/22 02:17:34;;;;;;;11.93;11.03;;;;;;;19.05;100.00;100605.38;4949443;28;20303;-75
2022/07/22 02:19:59;;;;;;;12.40;11.40;;;;;;;19.01;100.00;100603.78;4947964;28;20562;-75
2022/07/22 02:22:24;;;;;;;12.30;11.20;;;;;;;19.00;100.00;100610.81;4945715;28;20197;-76
2022/07/22 02:24:50;;;;;;;13.13;12.10;;;;;;;18.98;100.00;100609.16;4945126;28;20203;-75
2022/07/22 02:27:15;;;;;;;11.70;10.80;;;;;;;18.97;100.00;100610.09;4948567;28;20674;-76
2022/07/22 02:29:41;;;;;;;13.07;12.07;;;;;;;18.97;100.00;100615.31;4943396;28;20223;-76
2022/07/22 02:32:06;;;;;;;12.10;11.10;;;;;;;18.95;100.00;100615.38;4947851;28;20222;-76
2022/07/22 02:34:32;;;;;;;12.83;11.77;;;;;;;18.94;100.00;100612.78;4946575;28;20196;-76
2022/07/22 02:36:57;;;;;;;12.93;11.93;;;;;;;18.91;100.00;100608.50;4950382;28;20847;-76
2022/07/22 02:39:23;;;;;;;12.63;11.67;;;;;;;18.88;100.00;100601.59;4957219;28;20207;-76
2022/07/22 02:41:48;;;;;;;13.27;12.07;;;;;;;18.90;100.00;100609.44;4953755;28;20188;-74
2022/07/22 02:44:13;;;;;;;12.50;11.50;;;;;;;18.89;100.00;100612.97;4943226;29;20207;-76
2022/07/22 02:46:39;;;;;;;12.97;11.87;;;;;;;18.88;100.00;100608.63;4943156;28;20293;-75
2022/07/22 02:49:05;;;;;;;14.10;13.00;;;;;;;18.86;100.00;100608.69;4946118;28;20679;-76
2022/07/22 02:51:30;;;;;;;13.57;12.47;;;;;;;18.85;100.00;100608.75;4943234;29;20185;-76
2022/07/22 02:53:56;;;;;;;13.13;12.13;;;;;;;18.83;100.00;100610.56;4946871;29;20558;-77
2022/07/22 02:56:21;;;;;;;13.97;12.87;;;;;;;18.82;100.00;100603.63;4936163;28;20227;-76
2022/07/22 02:58:51;;;;;;;13.33;12.23;;;;;;;18.80;100.00;100616.78;4942620;28;20226;-74
2022/07/22 03:01:18;;;;;;;13.93;12.83;;;;;;;18.80;100.00;100610.69;4946980;29;20191;-76
2022/07/22 03:03:44;;;;;;;12.97;11.80;;;;;;;18.77;100.00;100603.78;4944125;28;20196;-77
2022/07/22 03:06:09;;;;;;;14.43;13.10;;;;;;;18.78;100.00;100610.75;4946318;28;20217;-76
2022/07/22 03:08:36;;;;;;;13.47;12.47;;;;;;;18.74;100.00;100606.53;4965773;28;20302;-75
2022/07/22 03:11:01;;;;;;;13.73;12.63;;;;;;;18.73;100.00;100605.69;4944100;28;20193;-75
2022/07/22 03:13:26;;;;;;;13.80;12.50;;;;;;;18.70;100.00;100608.41;4938314;28;20200;-77
2022/07/22 03:15:52;;;;;;;13.63;12.50;;;;;;;18.69;100.00;100609.34;4943648;29;20182;-76
2022/07/22 03:18:17;;;;;;;14.57;13.17;;;;;;;18.68;100.00;100605.00;4939825;29;20242;-76
2022/07/22 03:20:42;;;;;;;13.37;12.27;;;;;;;18.62;100.00;100602.59;4945107;28;20251;-75
2022/07/22 03:23:08;;;;;;;14.60;13.23;;;;;;;18.59;100.00;100614.06;4949399;28;20555;-77
2022/07/22 03:25:34;;;;;;;13.20;12.10;;;;;;;18.56;100.00;100603.69;4945261;28;20286;-75
2022/07/22 03:27:59;;;;;;;13.57;12.43;;;;;;;18.56;100.00;100602.84;4947319;29;20227;-75
2022/07/22 03:30:24;;;;;;;13.83;12.60;;;;;;;18.53;100.00;100613.44;4947481;28;20188;-76
2022/07/22 03:32:50;;;;;;;13.87;12.77;;;;;;;18.54;100.00;100612.53;4945946;29;20623;-76
2022/07/22 03:35:16;;;;;;;13.53;12.43;;;;;;;18.49;100.00;100607.47;4945400;28;20178;-76
2022/07/22 03:37:41;;;;;;;17.60;13.17;;;;;;;18.47;100.00;100613.66;4940685;28;20188;-76
2022/07/22 03:40:08;;;;;;;13.97;12.70;;;;;;;18.46;100.00;100609.31;4936749;29;20219;-76
2022/07/22 03:42:34;;;;;;;15.43;12.53;;;;;;;18.42;100.00;100609.44;4945343;28;20192;-77
2022/07/22 03:44:59;;;;;;;14.73;13.23;;;;;;;18.39;100.00;100603.44;4946549;28;20204;-77
2022/07/22 03:47:24;;;;;;;14.07;12.90;;;;;;;18.39;100.00;100608.69;4940017;29;20200;-76
2022/07/22 03:49:50;;;;;;;14.00;12.60;;;;;;;18.35;100.00;100605.34;4951466;28;20668;-76
2022/07/22 03:52:16;;;;;;;14.17;12.67;;;;;;;18.35;100.00;100605.34;4944745;29;20202;-76
2022/07/22 03:54:42;;;;;;;15.67;12.70;;;;;;;18.34;100.00;100605.41;4943989;28;20580;-76
2022/07/22 03:57:07;;;;;;;14.40;13.00;;;;;;;18.34;100.00;100601.00;4947316;28;20197;-76
2022/07/22 03:59:33;;;;;;;20.03;12.50;;;;;;;18.36;100.00;100596.56;4945436;28;20267;-77
2022/07/22 04:01:59;;;;;;;14.27;12.77;;;;;;;18.35;100.00;100602.72;4948041;28;20199;-76
2022/07/22 04:04:24;;;;;;;14.00;12.43;;;;;;;18.34;100.00;100606.25;4946206;28;20183;-76
2022/07/22 04:06:51;;;;;;;17.77;12.83;;;;;;;18.34;100.00;100598.38;4948128;28;20559;-76
2022/07/22 04:09:17;;;;;;;16.93;12.83;;;;;;;18.37;100.00;100597.44;4944578;29;20262;-75
2022/07/22 04:11:42;;;;;;;18.63;13.17;;;;;;;18.40;100.00;100598.16;4945080;28;20561;-77
2022/07/22 04:14:08;;;;;;;18.17;13.80;;;;;;;18.40;100.00;100602.53;4947597;29;20188;-76
2022/07/22 04:16:34;;;;;;;15.70;13.33;;;;;;;18.44;100.00;100601.53;4939196;29;20197;-76
2022/07/22 04:19:00;;;;;;;14.20;13.00;;;;;;;18.48;100.00;100594.41;4945751;28;20262;-76
2022/07/22 04:21:25;;;;;;;14.13;12.73;;;;;;;18.52;100.00;100590.75;4939374;28;20197;-76
2022/07/22 04:23:51;;;;;;;14.07;12.87;;;;;;;18.59;100.00;100593.09;4948332;28;20205;-76
2022/07/22 04:26:16;;;;;;;12.67;11.63;;;;;;;18.65;100.00;100594.63;4965623;28;20218;-75
2022/07/22 04:28:42;;;;;;;13.47;12.17;;;;;;;18.72;100.00;100590.88;4962138;28;20215;-76
2022/07/22 04:31:07;;;;;;;13.07;11.80;;;;;;;18.76;100.00;100596.84;4948946;28;20210;-78
2022/07/22 04:33:33;;;;;;;14.17;12.73;;;;;;;18.83;100.00;100593.06;4948681;28;20247;-76
2022/07/22 04:35:59;;;;;;;13.33;12.23;;;;;;;18.88;100.00;100598.16;4944035;28;20261;-76
2022/07/22 04:38:24;;;;;;;13.90;12.50;;;;;;;18.95;100.00;100593.53;4945757;28;20211;-76
2022/07/22 04:40:50;;;;;;;13.10;11.67;;;;;;;18.98;100.00;100599.53;4943395;28;20560;-76
2022/07/22 04:43:15;;;;;;;14.37;11.53;;;;;;;19.07;100.00;100590.44;4952554;28;20237;-76
2022/07/22 04:45:40;;;;;;;13.87;11.70;;;;;;;19.29;100.00;100592.19;4946757;28;20361;-77
2022/07/22 04:48:06;;;;;;;13.17;11.77;;;;;;;19.64;100.00;100589.88;4945749;28;20275;-77
2022/07/22 04:50:31;;;;;;;12.90;11.70;;;;;;;19.97;100.00;100589.38;4945530;28;20461;-78
2022/07/22 04:52:57;;;;;;;12.43;11.47;;;;;;;19.98;100.00;100582.34;4944590;28;20605;-77
2022/07/22 04:55:22;;;;;;;11.83;10.67;;;;;;;19.90;100.00;100583.56;4949904;28;20688;-78
2022/07/22 04:57:47;;;;;;;11.90;9.77;;;;;;;19.99;100.00;100589.31;4946130;28;20624;-76
2022/07/22 05:00:15;;;;;;;12.27;11.27;;;;;;;20.03;100.00;100586.50;4950691;28;20267;-77
2022/07/22 05:02:41;;;;;;;11.57;10.57;;;;;;;20.00;100.00;100588.41;4967790;28;20204;-77
2022/07/22 05:05:07;;;;;;;13.33;10.77;;;;;;;19.87;100.00;100595.97;4950468;28;20649;-76
2022/07/22 05:07:32;;;;;;;12.33;11.23;;;;;;;19.83;100.00;100582.06;4950892;28;20192;-77
2022/07/22 05:09:57;;;;;;;13.03;11.83;;;;;;;19.88;100.00;100590.63;4947675;28;20189;-77
2022/07/22 05:12:23;;;;;;;12.10;11.03;;;;;;;19.84;100.00;100589.03;4950060;28;20332;-77
2022/07/22 05:14:48;;;;;;;13.10;11.90;;;;;;;20.02;100.00;100589.19;4953372;28;20666;-76
2022/07/22 05:17:14;;;;;;;11.90;10.83;;;;;;;20.38;100.00;100589.31;4951987;28;20296;-76
2022/07/22 05:19:40;;;;;;;10.73;9.73;;;;;;;20.67;100.00;100584.50;4951541;28;20209;-78
2022/07/22 05:22:09;;;;;;;11.13;10.23;;;;;;;20.92;100.00;100580.75;4952202;28;20742;-76
2022/07/22 05:24:35;;;;;;;11.53;10.50;;;;;;;21.52;100.00;100584.00;4951097;28;20194;-76
2022/07/22 05:27:00;;;;;;;11.40;10.40;;;;;;;21.69;98.48;100584.03;4949061;28;20216;-77
2022/07/22 05:29:26;;;;;;;11.17;10.10;;;;;;;22.06;96.75;100583.94;4948095;28;20228;-78
2022/07/22 05:31:51;;;;;;;10.43;9.33;;;;;;;23.19;94.45;100588.34;4948800;28;20194;-76
2022/07/22 05:34:16;;;;;;;10.20;9.30;;;;;;;23.94;90.67;100582.28;4950423;29;20517;-78
2022/07/22 05:36:42;;;;;;;9.40;8.50;;;;;;;24.88;87.57;100575.59;4950428;28;20182;-77
2022/07/22 05:39:07;;;;;;;8.97;8.27;;;;;;;25.26;85.38;100577.56;4949816;28;20683;-77
2022/07/22 05:41:33;;;;;;;9.37;8.57;;;;;;;25.54;84.19;100570.44;4951721;29;20669;-78
2022/07/22 05:43:58;;;;;;;9.60;8.80;;;;;;;25.71;82.84;100571.91;4949396;28;20900;-76
2022/07/22 05:46:24;;;;;;;9.77;8.87;;;;;;;25.80;82.14;100562.50;4947819;28;20253;-76
2022/07/22 05:48:49;;;;;;;10.43;8.00;;;;;;;26.17;81.69;100567.91;4931535;29;20303;-76
2022/07/22 05:51:14;;;;;;;9.83;8.90;;;;;;;26.46;80.43;100557.03;4944157;28;20550;-75
2022/07/22 05:53:41;;;;;;;9.73;8.67;;;;;;;26.48;80.88;100557.78;4949398;28;20187;-75
2022/07/22 05:56:08;;;;;;;8.83;8.03;;;;;;;27.04;79.12;100559.06;4944906;28;20196;-75
2022/07/22 05:58:33;;;;;;;9.43;8.53;;;;;;;27.30;78.54;100566.88;4947802;28;20234;-77
2022/07/22 06:00:59;;;;;;;9.53;8.73;;;;;;;27.24;77.79;100565.53;4947049;28;20277;-76
2022/07/22 06:03:24;;;;;;;8.63;7.87;;;;;;;27.51;77.98;100559.16;4950328;28;20195;-75
2022/07/22 06:05:50;;;;;;;9.63;8.83;;;;;;;27.66;76.95;100556.28;4949222;28;20281;-75
2022/07/22 06:08:15;;;;;;;9.23;8.53;;;;;;;28.12;76.24;100559.84;4949601;28;20210;-75
2022/07/22 06:10:41;;;;;;;10.23;9.33;;;;;;;27.97;75.65;100562.72;4950029;28;20194;-74
2022/07/22 06:13:06;;;;;;;10.17;9.37;;;;;;;27.35;77.34;100554.13;4951523;28;20191;-77
2022/07/22 06:15:32;;;;;;;9.93;9.13;;;;;;;27.50;77.50;100543.31;4950234;28;20187;-76
2022/07/22 06:17:57;;;;;;;10.90;9.80;;;;;;;27.34;78.10;100548.94;4949212;28;20216;-75
2022/07/22 06:20:23;;;;;;;9.30;8.50;;;;;;;27.79;77.40;100548.19;4949454;28;20702;-76
2022/07/22 06:22:48;;;;;;;9.83;8.97;;;;;;;27.93;76.31;100545.28;4965448;28;20198;-77
2022/07/22 06:25:14;;;;;;;9.83;9.10;;;;;;;27.37;77.03;100544.22;4953046;28;20698;-76
2022/07/22 06:27:39;;;;;;;10.70;9.77;;;;;;;27.27;77.56;100558.31;4950932;28;20715;-76
2022/07/22 06:30:06;;;;;;;10.50;9.60;;;;;;;27.37;77.12;100549.53;4949153;28;20208;-76
2022/07/22 06:32:32;;;;;;;10.53;9.63;;;;;;;26.69;79.65;100551.03;4953773;28;20219;-75
2022/07/22 06:34:57;;;;;;;10.30;9.30;;;;;;;26.91;79.03;100545.00;4952169;28;20705;-77
2022/07/22 06:37:22;;;;;;;10.37;9.23;;;;;;;26.96;78.93;100548.19;4949391;29;20625;-75
2022/07/22 06:39:48;;;;;;;9.80;8.77;;;;;;;26.90;79.65;100545.97;4952492;28;20214;-73
2022/07/22 06:42:13;;;;;;;9.13;8.23;;;;;;;27.06;78.86;100543.88;4948644;28;20993;-76
2022/07/22 06:44:39;;;;;;;9.80;8.73;;;;;;;28.03;75.98;100537.44;4949069;29;20174;-76
2022/07/22 06:47:04;;;;;;;10.20;9.20;;;;;;;28.05;75.77;100534.69;4948925;28;20257;-75
2022/07/22 06:49:30;;;;;;;9.40;8.60;;;;;;;28.13;75.71;100530.44;4949862;28;20229;-76
2022/07/22 06:51:55;;;;;;;9.53;8.73;;;;;;;28.47;74.58;100529.56;4950599;28;20590;-77
2022/07/22 06:54:21;;;;;;;9.67;8.77;;;;;;;28.33;74.59;100535.16;4947724;28;20198;-75
2022/07/22 06:56:46;;;;;;;10.43;9.63;;;;;;;27.72;76.59;100531.84;4946671;28;20191;-76
2022/07/22 06:59:12;;;;;;;10.33;9.43;;;;;;;28.19;75.77;100518.50;4948222;28;20206;-76
2022/07/22 07:01:37;;;;;;;10.73;8.83;;;;;;;27.61;77.41;100521.22;4949616;28;20197;-77
2022/07/22 07:04:02;;;;;;;10.30;9.27;;;;;;;27.91;76.08;100509.16;4948798;28;20187;-76
2022/07/22 07:06:28;;;;;;;9.37;8.57;;;;;;;27.98;75.83;100516.53;4950979;28;20258;-76
2022/07/22 07:08:54;;;;;;;10.27;9.23;;;;;;;27.82;76.53;100513.38;4964007;28;20682;-76
2022/07/22 07:11:19;;;;;;;9.70;8.80;;;;;;;27.55;77.02;100530.53;4945787;28;20207;-76
2022/07/22 07:13:45;;;;;;;11.40;8.97;;;;;;;27.66;77.62;100505.78;4946801;28;20194;-76
2022/07/22 07:16:10;;;;;;;9.50;8.70;;;;;;;28.21;76.10;100502.38;4948456;28;20884;-75
2022/07/22 07:18:35;;;;;;;10.30;8.70;;;;;;;27.65;77.64;100509.41;4950207;28;20893;-76
2022/07/22 07:21:02;;;;;;;10.93;9.23;;;;;;;27.66;77.28;100500.47;4946246;29;20198;-75
2022/07/22 07:23:28;;;;;;;10.43;9.50;;;;;;;27.51;77.85;100503.34;4948703;29;20534;-75
2022/07/22 07:25:53;;;;;;;9.33;8.43;;;;;;;28.08;76.44;100497.16;4945983;28;20213;-76
2022/07/22 07:28:19;;;;;;;9.73;8.90;;;;;;;28.26;75.87;100493.06;4946612;28;20750;-75
2022/07/22 07:30:45;;;;;;;10.20;9.20;;;;;;;28.12;76.21;100506.63;4947568;28;20187;-75
2022/07/22 07:33:10;;;;;;;9.63;8.63;;;;;;;27.78;77.09;100499.50;4947527;28;20757;-76
2022/07/22 07:35:35;;;;;;;9.43;8.63;;;;;;;27.96;76.48;100497.19;4948942;28;20189;-75
2022/07/22 07:38:01;;;;;;;9.80;8.90;;;;;;;28.39;75.67;100489.41;4947514;29;20261;-75
2022/07/22 07:40:26;;;;;;;9.53;8.73;;;;;;;28.70;74.96;100500.19;4946551;28;20202;-76
2022/07/22 07:42:52;;;;;;;9.47;8.50;;;;;;;28.67;74.90;100490.66;4941803;28;20198;-75
2022/07/22 07:45:17;;;;;;;8.87;8.07;;;;;;;28.68;75.57;100503.00;4962427;28;20215;-76
2022/07/22 07:47:42;;;;;;;9.93;9.07;;;;;;;28.26;75.65;100500.22;4955573;28;20197;-75
2022/07/22 07:50:08;;;;;;;9.13;8.20;;;;;;;27.63;77.97;100490.88;4947908;28;20186;-76
2022/07/22 07:52:42;;;;;;;9.47;8.50;;;;;;;27.89;77.53;100495.13;4944102;28;20197;-75
2022/07/22 07:55:09;;;;;;;10.03;9.13;;;;;;;27.93;77.26;100502.75;4963115;28;20201;-76
2022/07/22 07:57:36;;;;;;;10.57;9.67;;;;;;;27.70;77.55;100493.91;4946119;28;20191;-76
2022/07/22 08:00:04;;;;;;;8.73;7.90;;;;;;;27.71;78.07;100487.63;4948315;28;20257;-75
2022/07/22 08:02:29;;;;;;;10.10;9.30;;;;;;;27.60;78.34;100483.19;4946713;28;20206;-75
2022/07/22 08:04:55;;;;;;;10.67;9.60;;;;;;;27.67;77.80;100489.69;4947746;28;20255;-76
2022/07/22 08:07:20;;;;;;;9.50;8.63;;;;;;;27.60;78.40;100480.50;4962528;28;20273;-76
2022/07/22 08:09:46;;;;;;;9.03;8.33;;;;;;;27.76;77.93;100472.16;4947393;29;20566;-75
2022/07/22 08:12:11;;;;;;;10.03;8.97;;;;;;;27.69;77.94;100470.94;4949067;28;20194;-75
2022/07/22 08:14:37;;;;;;;9.87;8.97;;;;;;;26.97;79.78;100472.00;4962047;28;20602;-76
2022/07/22 08:17:02;;;;;;;9.60;8.90;;;;;;;26.91;80.53;100466.22;4949161;29;20626;-75
2022/07/22 08:19:28;;;;;;;9.17;8.47;;;;;;;26.93;80.86;100463.44;4945355;28;20214;-75
2022/07/22 08:21:53;;;;;;;10.33;9.33;;;;;;;26.95;80.35;100463.31;4964314;28;20190;-75
2022/07/22 08:24:19;;;;;;;9.10;8.40;;;;;;;27.17;80.16;100468.69;4947126;28;20225;-75
2022/07/22 08:26:44;;;;;;;9.67;8.90;;;;;;;27.19;80.02;100460.59;4948520;28;20206;-75
2022/07/22 08:29:10;;;;;;;9.57;8.70;;;;;;;27.12;79.64;100467.34;4948908;28;20210;-76
2022/07/22 08:31:36;;;;;;;9.67;8.73;;;;;;;26.93;80.11;100480.19;4949353;28;20673;-77
2022/07/22 08:34:03;;;;;;;9.57;8.77;;;;;;;26.61;81.00;100464.84;4951541;29;20260;-76
2022/07/22 08:36:29;;;;;;;10.10;9.10;;;;;;;26.29;82.15;100467.19;4947051;29;20697;-76
2022/07/22 08:38:55;;;;;;;9.60;8.73;;;;;;;26.38;82.18;100461.25;4942681;29;20242;-76
2022/07/22 08:41:22;;;;;;;9.57;8.77;;;;;;;26.44;81.75;100455.47;4953076;28;20549;-76
2022/07/22 08:43:48;;;;;;;9.13;8.23;;;;;;;26.35;82.97;100465.91;4951895;28;20225;-77
2022/07/22 08:46:13;;;;;;;9.70;8.90;;;;;;;26.20;83.12;100463.41;4950608;28;20684;-77
2022/07/22 08:48:39;;;;;;;9.67;8.87;;;;;;;26.27;82.71;100453.19;4948494;28;20211;-76
2022/07/22 08:51:05;;;;;;;9.83;9.03;;;;;;;26.04;83.41;100450.38;4948794;28;20197;-76
2022/07/22 08:53:31;;;;;;;9.80;8.90;;;;;;;26.12;83.70;100448.03;4947159;28;20188;-77
2022/07/22 08:55:56;;;;;;;10.03;9.10;;;;;;;26.07;83.52;100441.34;4950279;28;20821;-76
2022/07/22 08:58:22;;;;;;;9.27;8.53;;;;;;;26.04;83.57;100434.47;4950407;28;20221;-76
2022/07/22 09:01:06;;;;;;;10.17;9.40;;;;;;;26.05;83.53;100435.31;4949288;28;20281;-76
2022/07/22 09:03:31;;;;;;;9.10;8.40;;;;;;;26.06;83.76;100432.56;4949304;29;20193;-77
2022/07/22 09:05:57;;;;;;;10.37;9.33;;;;;;;26.01;83.35;100432.03;4965280;28;20292;-77
2022/07/22 09:08:22;;;;;;;9.00;8.20;;;;;;;26.06;83.58;100429.03;4951787;28;20241;-77
2022/07/22 09:10:48;;;;;;;10.83;9.80;;;;;;;25.94;84.05;100436.94;4950273;28;20190;-76
2022/07/22 09:13:16;;;;;;;10.43;9.30;;;;;;;25.99;84.40;100424.19;4950542;28;20193;-76
2022/07/22 09:15:50;;;;;;;10.30;9.27;;;;;;;26.02;84.17;100423.94;4950549;28;20221;-77
2022/07/22 09:18:15;;;;;;;9.90;8.97;;;;;;;26.05;83.66;100425.56;4952508;28;20774;-76
2022/07/22 09:20:43;;;;;;;10.00;9.20;;;;;;;26.03;83.91;100420.34;4952072;29;20201;-77
2022/07/22 09:23:20;;;;;;;9.83;9.03;;;;;;;26.09;83.85;100415.56;4951674;28;20194;-77
2022/07/22 09:25:46;;;;;;;9.70;8.80;;;;;;;26.20;83.50;100404.22;4948215;29;20207;-76
2022/07/22 09:28:15;;;;;;;9.53;8.73;;;;;;;26.34;83.55;100412.00;4949661;28;20946;-75
2022/07/22 09:30:52;;;;;;;9.93;9.10;;;;;;;26.33;82.72;100412.97;4951155;28;20632;-76
2022/07/22 09:33:18;;;;;;;13.07;9.40;;;;;;;26.35;83.31;100420.78;4951778;29;20544;-75
2022/07/22 09:35:45;;;;;;;9.60;8.50;;;;;;;26.38;83.17;100415.28;4949916;28;20613;-76
2022/07/22 09:38:12;;;;;;;10.17;9.10;;;;;;;26.37;82.89;100408.28;4950235;28;20214;-76
2022/07/22 09:40:40;;;;;;;10.00;9.10;;;;;;;26.62;82.20;100402.00;4942222;28;20250;-75
2022/07/22 09:43:18;;;;;;;9.47;8.63;;;;;;;26.82;82.16;100389.06;4948946;28;20190;-76
2022/07/22 09:45:48;;;;;;;9.63;8.73;;;;;;;26.81;81.73;100392.69;4950273;29;20334;-75
2022/07/22 09:48:15;;;;;;;9.60;8.57;;;;;;;26.80;81.23;100402.44;4951025;28;20214;-76
2022/07/22 09:50:41;;;;;;;9.27;8.50;;;;;;;26.76;81.69;100382.38;4949380;28;20191;-76
2022/07/22 09:53:06;;;;;;;9.53;8.73;;;;;;;26.90;81.50;100382.19;4952069;28;20733;-76
2022/07/22 09:55:33;;;;;;;9.97;9.17;;;;;;;26.89;81.27;100384.97;4949904;28;20201;-75
2022/07/22 09:57:59;;;;;;;9.70;8.80;;;;;;;26.90;81.03;100381.34;4943774;28;20762;-75
2022/07/22 10:00:27;;;;;;;9.13;8.43;;;;;;;27.16;81.14;100374.03;4949544;28;20410;-74
2022/07/22 10:03:00;;;;;;;9.43;8.67;;;;;;;27.38;80.04;100374.97;4948704;29;20286;-75
2022/07/22 10:05:30;;;;;;;9.97;8.80;;;;;;;27.34;79.89;100377.03;4947354;28;20205;-76
2022/07/22 10:07:56;;;;;;;8.80;8.10;;;;;;;27.44;80.61;100373.69;4950138;28;20284;-76
2022/07/22 10:10:26;;;;;;;9.07;8.27;;;;;;;27.54;79.67;100374.66;4948833;28;20187;-75
2022/07/22 10:12:53;;;;;;;10.87;8.83;;;;;;;27.49;79.01;100385.66;4950380;28;20201;-75
2022/07/22 10:15:21;;;;;;;17.73;9.33;;;;;;;27.35;79.70;100369.94;4948936;28;20651;-75
2022/07/22 10:17:49;;;;;;;9.13;8.30;;;;;;;27.42;79.57;100372.94;4952032;28;20244;-80
2022/07/22 10:20:21;;;;;;;9.50;8.70;;;;;;;27.46;79.16;100374.41;4948853;28;20190;-77
2022/07/22 10:23:01;;;;;;;9.00;8.30;;;;;;;27.48;78.92;100361.84;4948433;29;20663;-74
2022/07/22 10:25:32;;;;;;;9.73;8.83;;;;;;;27.61;78.50;100359.91;4948621;29;20207;-78
2022/07/22 10:28:03;;;;;;;8.70;7.83;;;;;;;27.60;79.23;100355.59;4948534;28;20581;-75
2022/07/22 10:30:36;;;;;;;9.13;8.43;;;;;;;27.76;78.92;100356.97;4948099;29;20218;-78
2022/07/22 10:33:05;;;;;;;9.73;8.83;;;;;;;27.64;78.26;100358.84;4949996;28;20229;-73
2022/07/22 10:35:32;;;;;;;8.80;8.00;;;;;;;27.81;77.86;100350.34;4945527;29;20184;-76
2022/07/22 10:38:01;;;;;;;9.33;8.63;;;;;;;27.74;77.53;100348.31;4941014;29;20211;-74
2022/07/22 10:40:30;;;;;;;9.47;7.90;;;;;;;27.75;77.73;100342.84;4937535;29;20563;-75
2022/07/22 10:43:03;;;;;;;8.80;8.10;;;;;;;27.98;77.84;100351.63;4951089;28;20210;-76
2022/07/22 10:45:36;;;;;;;8.17;7.57;;;;;;;28.17;76.87;100328.84;4946778;28;20207;-75
2022/07/22 10:48:10;;;;;;;8.60;7.90;;;;;;;28.18;76.81;100330.56;4948920;28;20288;-75
2022/07/22 10:50:35;;;;;;;8.23;7.53;;;;;;;28.38;76.05;100330.69;4955088;28;20659;-75
2022/07/22 10:53:08;;;;;;;8.77;8.07;;;;;;;28.45;76.16;100316.72;4935556;29;20235;-75
2022/07/22 10:55:34;;;;;;;8.47;7.77;;;;;;;28.60;75.67;100313.75;4945530;29;20608;-76
2022/07/22 10:58:00;;;;;;;8.37;7.67;;;;;;;28.60;76.07;100308.41;4944412;28;20208;-76
2022/07/22 11:00:26;;;;;;;8.20;7.50;;;;;;;28.43;75.82;100320.50;4931045;29;20201;-75
2022/07/22 11:02:52;;;;;;;8.80;7.97;;;;;;;28.47;75.79;100313.09;4959063;28;20229;-76
2022/07/22 11:05:30;;;;;;;8.50;7.80;;;;;;;28.63;75.59;100302.84;4947523;28;20249;-75
2022/07/22 11:07:55;;;;;;;8.67;7.87;;;;;;;28.73;74.81;100300.28;4961553;28;20229;-75
2022/07/22 11:10:21;;;;;;;9.07;8.27;;;;;;;28.87;74.47;100299.09;4945373;28;20190;-75